createdAt,value
2023-02-08T00:01:15.797Z,12.10
2023-02-08T00:03:43.854Z,11.30
2023-02-08T00:06:12.281Z,11.47
2023-02-08T00:08:40.790Z,11.73
2023-02-08T00:11:10.644Z,11.37
2023-02-08T00:13:41.637Z,11.50
2023-02-08T00:16:12.342Z,10.40
2023-02-08T00:18:40.457Z,11.13
2023-02-08T00:21:13.105Z,10.13
2023-02-08T00:23:41.331Z,10.50
2023-02-08T00:26:09.556Z,10.40
2023-02-08T00:28:37.627Z,10.93
2023-02-08T00:31:06.449Z,11.43
2023-02-08T00:33:39.037Z,11.23
2023-02-08T00:36:08.809Z,11.53
2023-02-08T00:38:36.901Z,10.67
2023-02-08T00:41:08.653Z,10.03
2023-02-08T00:43:36.901Z,10.17
2023-02-08T00:46:05.501Z,10.20
2023-02-08T00:48:33.543Z,10.30
2023-02-08T00:51:07.085Z,11.67
2023-02-08T00:53:36.947Z,10.00
2023-02-08T00:56:08.347Z,9.90
2023-02-08T00:58:36.683Z,9.90
2023-02-08T01:01:05.988Z,9.93
2023-02-08T01:03:35.049Z,9.83
2023-02-08T01:06:05.821Z,10.63
2023-02-08T01:08:34.556Z,10.90
2023-02-08T01:11:07.469Z,11.10
2023-02-08T01:13:36.364Z,9.13
2023-02-08T01:16:11.898Z,9.53
2023-02-08T01:18:41.279Z,9.23
2023-02-08T01:21:12.926Z,10.13
2023-02-08T01:23:42.300Z,9.23
2023-02-08T01:26:15.106Z,10.33
2023-02-08T01:28:46.699Z,10.27
2023-02-08T01:31:21.582Z,10.23
2023-02-08T01:33:51.940Z,10.53
2023-02-08T01:36:23.909Z,10.40
2023-02-08T01:38:51.971Z,10.97
2023-02-08T01:41:25.372Z,9.77
2023-02-08T01:44:06.390Z,10.20
2023-02-08T01:46:35.694Z,10.80
2023-02-08T01:49:09.131Z,10.10
2023-02-08T01:51:42.552Z,10.57
2023-02-08T01:54:11.648Z,10.93
2023-02-08T01:56:43.205Z,10.47
2023-02-08T01:59:14.520Z,11.10
2023-02-08T02:01:43.703Z,11.20
2023-02-08T02:04:12.134Z,10.50
2023-02-08T02:06:44.907Z,11.47
2023-02-08T02:09:18.126Z,10.77
2023-02-08T02:11:46.221Z,11.07
2023-02-08T02:14:14.359Z,10.40
2023-02-08T02:16:42.654Z,9.83
2023-02-08T02:19:30.622Z,10.70
2023-02-08T02:22:13.907Z,11.10
2023-02-08T02:25:11.488Z,10.17
2023-02-08T02:27:54.082Z,10.03
2023-02-08T02:30:40.264Z,10.37
2023-02-08T02:33:29.143Z,10.40
2023-02-08T02:36:00.161Z,9.73
2023-02-08T02:38:40.943Z,9.73
2023-02-08T02:41:37.208Z,9.90
2023-02-08T02:44:06.881Z,9.80
2023-02-08T02:46:40.390Z,10.13
2023-02-08T02:49:15.600Z,10.27
2023-02-08T02:51:49.799Z,10.47
2023-02-08T02:54:20.784Z,10.23
2023-02-08T02:56:52.696Z,9.77
2023-02-08T02:59:23.270Z,9.73
2023-02-08T03:01:51.400Z,10.57
2023-02-08T03:04:51.650Z,10.30
2023-02-08T03:07:28.810Z,10.27
2023-02-08T03:10:07.720Z,9.60
2023-02-08T03:12:43.153Z,10.47
2023-02-08T03:15:19.816Z,10.23
2023-02-08T03:17:59.416Z,9.50
2023-02-08T03:20:31.246Z,9.83
2023-02-08T03:23:03.782Z,10.97
2023-02-08T03:25:37.255Z,10.70
2023-02-08T03:28:08.770Z,10.97
2023-02-08T03:30:46.329Z,12.03
2023-02-08T03:33:17.006Z,10.60
2023-02-08T03:35:51.025Z,11.60
2023-02-08T03:38:21.943Z,10.50
2023-02-08T03:40:52.997Z,11.90
2023-02-08T03:43:23.997Z,11.53
2023-02-08T03:45:53.779Z,10.93
2023-02-08T03:48:22.917Z,11.10
2023-02-08T03:50:54.247Z,12.07
2023-02-08T03:53:23.688Z,10.27
2023-02-08T03:55:54.464Z,10.37
2023-02-08T03:58:25.013Z,11.50
2023-02-08T04:00:56.201Z,11.30
2023-02-08T04:03:26.244Z,10.97
2023-02-08T04:05:55.932Z,11.77
2023-02-08T04:08:24.045Z,11.80
2023-02-08T04:10:52.680Z,11.10
2023-02-08T04:13:20.658Z,11.80
2023-02-08T04:15:48.759Z,11.03
2023-02-08T04:18:16.982Z,11.37
2023-02-08T04:20:44.909Z,11.20
2023-02-08T04:23:14.423Z,11.20
2023-02-08T04:25:42.467Z,10.90
2023-02-08T04:28:10.610Z,10.97
2023-02-08T04:30:38.791Z,10.83
2023-02-08T04:33:06.846Z,11.23
2023-02-08T04:35:35.214Z,10.43
2023-02-08T04:38:03.173Z,11.47
2023-02-08T04:40:33.306Z,11.20
2023-02-08T04:43:02.397Z,10.53
2023-02-08T04:45:32.153Z,10.80
2023-02-08T04:48:02.126Z,10.40
2023-02-08T04:50:30.133Z,10.67
2023-02-08T04:52:58.144Z,11.63
2023-02-08T04:55:26.231Z,10.03
2023-02-08T04:57:55.685Z,12.20
2023-02-08T05:00:23.726Z,11.40
2023-02-08T05:02:54.004Z,10.47
2023-02-08T05:05:22.214Z,10.87
2023-02-08T05:07:50.403Z,10.83
2023-02-08T05:10:18.953Z,10.40
2023-02-08T05:12:47.069Z,11.73
2023-02-08T05:15:16.569Z,11.27
2023-02-08T05:17:44.762Z,11.43
2023-02-08T05:20:13.422Z,11.77
2023-02-08T05:22:41.905Z,11.50
2023-02-08T05:25:10.334Z,11.50
2023-02-08T05:27:38.616Z,10.63
2023-02-08T05:30:07.584Z,11.50
2023-02-08T05:32:37.089Z,11.83
2023-02-08T05:35:05.341Z,12.67
2023-02-08T05:37:33.290Z,12.20
2023-02-08T05:40:01.348Z,11.87
2023-02-08T05:42:29.369Z,11.97
2023-02-08T05:44:57.327Z,11.80
2023-02-08T05:47:25.750Z,12.50
2023-02-08T05:49:55.190Z,11.70
2023-02-08T05:52:23.240Z,12.43
2023-02-08T05:54:51.367Z,13.00
2023-02-08T05:57:19.590Z,12.27
2023-02-08T05:59:47.682Z,11.77
2023-02-08T06:02:15.784Z,13.90
2023-02-08T06:04:43.905Z,12.47
2023-02-08T06:07:13.395Z,12.70
2023-02-08T06:09:41.530Z,13.93
2023-02-08T06:12:09.896Z,12.13
2023-02-08T06:14:37.957Z,13.37
2023-02-08T06:17:05.998Z,13.73
2023-02-08T06:19:34.034Z,13.80
2023-02-08T06:22:02.068Z,13.43
2023-02-08T06:24:31.874Z,13.13
2023-02-08T06:27:00.041Z,13.73
2023-02-08T06:29:28.368Z,12.97
2023-02-08T06:31:56.547Z,13.67
2023-02-08T06:34:24.773Z,13.63
2023-02-08T06:36:52.809Z,13.37
2023-02-08T06:39:20.938Z,13.60
2023-02-08T06:41:50.394Z,14.03
2023-02-08T06:44:18.505Z,14.10
2023-02-08T06:46:46.494Z,13.97
2023-02-08T06:49:14.650Z,13.93
2023-02-08T06:51:42.850Z,14.17
2023-02-08T06:54:11.025Z,14.30
2023-02-08T06:56:38.993Z,13.87
2023-02-08T06:59:08.567Z,14.10
2023-02-08T07:01:36.684Z,13.83
2023-02-08T07:04:05.223Z,16.17
2023-02-08T07:06:33.191Z,20.37
2023-02-08T07:09:02.661Z,18.70
2023-02-08T07:11:31.012Z,18.70
2023-02-08T07:13:59.221Z,17.47
2023-02-08T07:16:28.845Z,16.47
2023-02-08T07:18:57.121Z,15.53
2023-02-08T07:21:25.207Z,15.53
2023-02-08T07:23:53.258Z,13.53
2023-02-08T07:26:21.355Z,15.23
2023-02-08T07:28:49.325Z,14.53
2023-02-08T07:31:18.848Z,14.40
2023-02-08T07:33:48.521Z,14.33
2023-02-08T07:36:16.849Z,14.97
2023-02-08T07:38:45.037Z,14.43
2023-02-08T07:41:15.066Z,14.50
2023-02-08T07:43:43.957Z,15.43
2023-02-08T07:46:13.492Z,14.60
2023-02-08T07:48:42.376Z,15.17
2023-02-08T07:51:12.493Z,15.70
2023-02-08T07:53:41.005Z,13.87
2023-02-08T07:56:10.439Z,14.43
2023-02-08T07:58:38.957Z,15.13
2023-02-08T08:01:20.971Z,14.53
2023-02-08T08:03:50.047Z,15.13
2023-02-08T08:06:19.898Z,15.27
2023-02-08T08:08:48.165Z,15.10
2023-02-08T08:11:16.616Z,15.07
2023-02-08T08:13:44.892Z,15.97
2023-02-08T08:16:13.533Z,15.33
2023-02-08T08:18:41.600Z,15.00
2023-02-08T08:21:10.092Z,14.10
2023-02-08T08:23:39.532Z,15.20
2023-02-08T08:26:09.103Z,15.13
2023-02-08T08:28:38.340Z,13.70
2023-02-08T08:31:11.353Z,13.73
2023-02-08T08:33:39.728Z,13.80
2023-02-08T08:36:09.199Z,13.33
2023-02-08T08:38:38.765Z,13.70
2023-02-08T08:41:10.304Z,13.30
2023-02-08T08:43:40.375Z,13.47
2023-02-08T08:46:09.152Z,14.07
2023-02-08T08:48:38.319Z,12.13
2023-02-08T08:51:07.255Z,12.97
2023-02-08T08:53:37.099Z,13.67
2023-02-08T08:56:05.728Z,13.03
2023-02-08T08:58:35.295Z,13.20
2023-02-08T09:01:03.434Z,14.17
2023-02-08T09:03:33.580Z,13.53
2023-02-08T09:06:02.292Z,13.00
2023-02-08T09:08:30.415Z,13.20
2023-02-08T09:10:58.496Z,12.57
2023-02-08T09:13:26.631Z,12.50
2023-02-08T09:15:56.446Z,12.50
2023-02-08T09:18:25.620Z,12.90
2023-02-08T09:20:53.941Z,12.93
2023-02-08T09:23:21.890Z,12.33
2023-02-08T09:25:50.188Z,12.37
2023-02-08T09:28:18.755Z,12.50
2023-02-08T09:30:46.862Z,12.47
2023-02-08T09:33:16.398Z,12.63
2023-02-08T09:35:44.696Z,12.17
2023-02-08T09:38:13.177Z,11.80
2023-02-08T09:40:47.383Z,11.90
2023-02-08T09:43:19.893Z,11.83
2023-02-08T09:45:59.929Z,12.30
2023-02-08T09:48:33.725Z,11.97
2023-02-08T09:51:05.400Z,11.47
2023-02-08T09:53:36.262Z,11.03
2023-02-08T09:56:07.008Z,10.50
2023-02-08T09:58:38.404Z,11.10
2023-02-08T10:01:08.752Z,10.93
2023-02-08T10:03:42.461Z,10.37
2023-02-08T10:06:38.237Z,11.87
2023-02-08T10:09:15.556Z,10.03
2023-02-08T10:12:06.864Z,10.27
2023-02-08T10:15:04.348Z,10.20
2023-02-08T10:17:58.469Z,9.90
2023-02-08T10:20:36.853Z,9.70
2023-02-08T10:23:13.874Z,10.17
2023-02-08T10:25:48.218Z,9.40
2023-02-08T10:28:41.602Z,9.00
2023-02-08T10:31:22.704Z,8.43
2023-02-08T10:34:00.159Z,7.83
2023-02-08T10:36:33.234Z,8.60
2023-02-08T10:39:02.062Z,7.73
2023-02-08T10:41:36.059Z,7.20
2023-02-08T10:44:08.559Z,7.60
2023-02-08T10:46:39.506Z,7.40
2023-02-08T10:49:16.771Z,7.17
2023-02-08T10:51:48.921Z,6.80
2023-02-08T10:54:20.639Z,6.83
2023-02-08T10:56:57.499Z,7.03
2023-02-08T10:59:29.581Z,6.10
2023-02-08T11:01:58.426Z,11.27
2023-02-08T11:04:27.003Z,6.70
2023-02-08T11:06:57.922Z,6.73
2023-02-08T11:09:29.680Z,6.30
2023-02-08T11:12:02.600Z,6.20
2023-02-08T11:14:47.362Z,6.07
2023-02-08T11:17:30.982Z,21.30
2023-02-08T11:20:02.761Z,5.57
2023-02-08T11:22:36.971Z,5.30
2023-02-08T11:25:08.800Z,5.43
2023-02-08T11:27:40.588Z,6.27
2023-02-08T11:30:27.703Z,5.67
2023-02-08T11:33:26.039Z,5.40
2023-02-08T11:36:06.170Z,5.47
2023-02-08T11:38:40.732Z,5.30
2023-02-08T11:41:23.945Z,5.30
2023-02-08T11:43:58.620Z,5.90
2023-02-08T11:46:29.302Z,4.77
2023-02-08T11:49:00.224Z,5.30
2023-02-08T11:51:31.287Z,5.57
2023-02-08T11:54:07.965Z,4.87
2023-02-08T11:56:36.690Z,5.37
2023-02-08T11:59:21.588Z,4.93
2023-02-08T12:01:52.870Z,5.23
2023-02-08T12:04:22.283Z,5.07
2023-02-08T12:07:19.954Z,4.90
2023-02-08T12:10:16.029Z,5.50
2023-02-08T12:12:54.149Z,4.70
2023-02-08T12:15:28.983Z,4.93
2023-02-08T12:18:14.742Z,4.73
2023-02-08T12:20:45.429Z,4.87
2023-02-08T12:23:28.914Z,5.23
2023-02-08T12:26:06.492Z,5.13
2023-02-08T12:28:44.554Z,5.30
2023-02-08T12:31:19.113Z,5.03
2023-02-08T12:33:55.737Z,5.43
2023-02-08T12:37:12.985Z,5.50
2023-02-08T12:40:02.372Z,5.13
2023-02-08T12:42:41.316Z,4.97
2023-02-08T12:45:55.258Z,5.03
2023-02-08T12:48:36.264Z,4.70
2023-02-08T12:51:09.651Z,5.20
2023-02-08T12:53:41.235Z,4.57
2023-02-08T12:56:16.381Z,4.70
2023-02-08T12:58:47.425Z,4.83
2023-02-08T13:01:19.643Z,5.80
2023-02-08T13:03:53.039Z,5.07
2023-02-08T13:06:25.429Z,4.97
2023-02-08T13:08:56.934Z,5.43
2023-02-08T13:11:31.173Z,4.43
2023-02-08T13:14:04.523Z,4.60
2023-02-08T13:16:35.381Z,4.43
2023-02-08T13:19:20.119Z,4.50
2023-02-08T13:21:48.285Z,4.40
2023-02-08T13:24:23.412Z,4.43
2023-02-08T13:26:51.660Z,4.63
2023-02-08T13:29:21.884Z,4.37
2023-02-08T13:31:52.615Z,4.67
2023-02-08T13:34:28.686Z,4.40
2023-02-08T13:36:59.696Z,4.27
2023-02-08T13:39:34.990Z,4.23
2023-02-08T13:42:04.260Z,4.43
2023-02-08T13:44:36.360Z,4.90
2023-02-08T13:47:06.866Z,3.87
2023-02-08T13:49:54.053Z,4.63
2023-02-08T13:52:48.973Z,4.00
2023-02-08T13:55:56.032Z,4.93
2023-02-08T13:58:39.900Z,4.50
2023-02-08T14:01:21.191Z,4.63
2023-02-08T14:04:18.417Z,4.70
2023-02-08T14:06:49.373Z,4.93
2023-02-08T14:09:22.525Z,4.80
2023-02-08T14:11:52.276Z,4.50
2023-02-08T14:14:25.468Z,4.60
2023-02-08T14:17:18.425Z,5.93
2023-02-08T14:19:49.148Z,4.83
2023-02-08T14:22:21.788Z,5.47
2023-02-08T14:24:51.822Z,4.57
2023-02-08T14:27:22.252Z,4.77
2023-02-08T14:30:00.714Z,4.87
2023-02-08T14:32:32.339Z,5.00
2023-02-08T14:35:06.590Z,5.30
2023-02-08T14:37:38.206Z,5.13
2023-02-08T14:40:32.804Z,5.17
2023-02-08T14:43:01.944Z,4.57
2023-02-08T14:45:37.171Z,5.07
2023-02-08T14:48:21.169Z,4.87
2023-02-08T14:51:03.088Z,4.70
2023-02-08T14:53:37.241Z,5.40
2023-02-08T14:56:09.076Z,4.63
2023-02-08T14:58:39.312Z,4.90
2023-02-08T15:01:09.309Z,4.50
2023-02-08T15:03:41.318Z,5.00
2023-02-08T15:06:34.633Z,4.63
2023-02-08T15:09:03.089Z,4.50
2023-02-08T15:11:35.025Z,4.50
2023-02-08T15:14:06.340Z,4.33
2023-02-08T15:16:37.240Z,4.60
2023-02-08T15:19:08.990Z,4.90
2023-02-08T15:21:40.995Z,4.60
2023-02-08T15:24:18.879Z,4.10
2023-02-08T15:26:48.452Z,4.60
2023-02-08T15:29:26.148Z,4.63
2023-02-08T15:31:58.422Z,4.50
2023-02-08T15:34:27.936Z,4.63
2023-02-08T15:37:00.016Z,4.37
2023-02-08T15:39:35.025Z,3.83
2023-02-08T15:42:05.348Z,3.93
2023-02-08T15:44:35.003Z,4.57
2023-02-08T15:47:05.668Z,4.20
2023-02-08T15:49:40.980Z,4.40
2023-02-08T15:52:09.608Z,4.13
2023-02-08T15:54:37.730Z,4.00
2023-02-08T15:57:10.383Z,4.03
2023-02-08T15:59:49.375Z,4.30
2023-02-08T16:02:27.482Z,3.67
2023-02-08T16:04:57.628Z,5.90
2023-02-08T16:07:28.896Z,3.70
2023-02-08T16:09:59.462Z,3.97
2023-02-08T16:12:29.095Z,3.87
2023-02-08T16:15:00.328Z,3.80
2023-02-08T16:17:36.884Z,3.37
2023-02-08T16:20:25.971Z,3.67
2023-02-08T16:22:57.784Z,3.23
2023-02-08T16:25:35.575Z,3.53
2023-02-08T16:28:04.671Z,3.53
2023-02-08T16:30:32.935Z,4.00
2023-02-08T16:33:08.008Z,3.80
2023-02-08T16:35:39.259Z,3.23
2023-02-08T16:38:10.149Z,3.67
2023-02-08T16:40:48.884Z,3.53
2023-02-08T16:43:18.336Z,4.10
2023-02-08T16:45:46.733Z,3.60
2023-02-08T16:48:35.971Z,3.53
2023-02-08T16:51:08.503Z,4.40
2023-02-08T16:53:42.310Z,4.63
2023-02-08T16:56:12.113Z,3.80
2023-02-08T16:58:40.305Z,3.87
2023-02-08T17:01:12.702Z,4.40
2023-02-08T17:03:41.350Z,4.47
2023-02-08T17:06:22.034Z,4.70
2023-02-08T17:08:56.434Z,3.83
2023-02-08T17:11:24.704Z,4.10
2023-02-08T17:13:53.342Z,3.80
2023-02-08T17:16:26.119Z,4.37
2023-02-08T17:18:55.001Z,4.40
2023-02-08T17:21:24.555Z,4.67
2023-02-08T17:23:55.324Z,5.00
2023-02-08T17:26:27.491Z,4.80
2023-02-08T17:29:07.778Z,4.33
2023-02-08T17:31:38.186Z,4.73
2023-02-08T17:34:06.328Z,4.73
2023-02-08T17:36:46.280Z,4.13
2023-02-08T17:39:15.165Z,4.73
2023-02-08T17:41:46.371Z,5.43
2023-02-08T17:44:20.663Z,5.13
2023-02-08T17:46:53.207Z,5.33
2023-02-08T17:49:23.451Z,4.83
2023-02-08T17:51:54.655Z,5.97
2023-02-08T17:54:23.037Z,5.97
2023-02-08T17:56:56.548Z,5.77
2023-02-08T17:59:27.464Z,5.30
2023-02-08T18:02:00.097Z,5.80
2023-02-08T18:04:28.897Z,6.03
2023-02-08T18:06:59.876Z,6.40
2023-02-08T18:09:31.245Z,7.00
2023-02-08T18:12:00.014Z,6.60
2023-02-08T18:14:28.587Z,6.37
2023-02-08T18:17:00.115Z,6.90
2023-02-08T18:19:32.101Z,7.17
2023-02-08T18:22:10.651Z,6.23
2023-02-08T18:24:39.102Z,6.70
2023-02-08T18:27:08.684Z,5.50
2023-02-08T18:29:38.539Z,6.57
2023-02-08T18:32:10.313Z,6.23
2023-02-08T18:34:46.224Z,5.73
2023-02-08T18:37:16.373Z,5.70
2023-02-08T18:39:47.852Z,6.00
2023-02-08T18:42:16.237Z,6.20
2023-02-08T18:44:44.486Z,6.23
2023-02-08T18:47:12.938Z,6.20
2023-02-08T18:49:43.552Z,6.27
2023-02-08T18:52:16.439Z,6.40
2023-02-08T18:54:46.119Z,6.13
2023-02-08T18:57:14.497Z,6.43
2023-02-08T18:59:47.334Z,6.57
2023-02-08T19:02:18.964Z,6.10
2023-02-08T19:04:47.605Z,6.37
2023-02-08T19:07:18.479Z,6.03
2023-02-08T19:09:55.565Z,6.10
2023-02-08T19:12:25.643Z,6.53
2023-02-08T19:15:01.625Z,6.60
2023-02-08T19:17:31.772Z,6.70
2023-02-08T19:19:59.998Z,7.37
2023-02-08T19:22:36.940Z,7.67
2023-02-08T19:25:08.644Z,8.13
2023-02-08T19:27:37.185Z,7.07
2023-02-08T19:30:10.613Z,7.67
2023-02-08T19:32:38.796Z,8.57
2023-02-08T19:35:19.361Z,8.07
2023-02-08T19:37:50.248Z,8.17
2023-02-08T19:40:23.604Z,7.37
2023-02-08T19:42:55.858Z,7.57
2023-02-08T19:45:25.161Z,7.40
2023-02-08T19:47:57.002Z,7.07
2023-02-08T19:50:29.134Z,6.87
2023-02-08T19:53:09.168Z,6.87
2023-02-08T19:55:42.631Z,6.60
2023-02-08T19:58:22.173Z,7.03
2023-02-08T20:00:53.251Z,6.27
2023-02-08T20:03:24.417Z,6.73
2023-02-08T20:05:55.293Z,6.27
2023-02-08T20:08:32.420Z,6.70
2023-02-08T20:11:02.354Z,7.27
2023-02-08T20:13:30.631Z,6.17
2023-02-08T20:15:59.856Z,6.07
2023-02-08T20:18:28.211Z,6.43
2023-02-08T20:21:01.296Z,6.27
2023-02-08T20:23:29.974Z,6.53
2023-02-08T20:26:14.262Z,6.53
2023-02-08T20:28:47.379Z,7.23
2023-02-08T20:31:20.547Z,7.20
2023-02-08T20:33:49.254Z,6.10
2023-02-08T20:36:19.849Z,7.13
2023-02-08T20:38:49.183Z,6.63
2023-02-08T20:41:20.854Z,6.43
2023-02-08T20:43:49.355Z,7.17
2023-02-08T20:46:19.446Z,6.37
2023-02-08T20:48:47.936Z,7.07
2023-02-08T20:51:21.111Z,6.40
2023-02-08T20:53:50.341Z,6.53
2023-02-08T20:56:22.866Z,6.07
2023-02-08T20:58:51.595Z,6.63
2023-02-08T21:01:23.719Z,5.97
2023-02-08T21:03:54.083Z,6.13
2023-02-08T21:06:26.607Z,6.33
2023-02-08T21:08:57.027Z,6.43
2023-02-08T21:11:31.036Z,6.10
2023-02-08T21:14:01.672Z,6.13
2023-02-08T21:16:30.697Z,5.90
2023-02-08T21:18:59.493Z,6.00
2023-02-08T21:21:28.275Z,6.10
2023-02-08T21:23:58.116Z,6.00
2023-02-08T21:26:30.019Z,5.87
2023-02-08T21:29:00.551Z,6.27
2023-02-08T21:31:29.105Z,6.00
2023-02-08T21:33:59.798Z,5.87
2023-02-08T21:36:30.113Z,5.83
2023-02-08T21:39:01.699Z,5.77
2023-02-08T21:41:32.642Z,6.50
2023-02-08T21:44:04.540Z,5.60
2023-02-08T21:46:33.353Z,6.27
2023-02-08T21:49:19.852Z,6.40
2023-02-08T21:52:06.050Z,6.10
2023-02-08T21:54:43.059Z,6.27
2023-02-08T21:57:20.542Z,6.53
2023-02-08T21:59:51.841Z,6.70
2023-02-08T22:02:27.926Z,6.43
2023-02-08T22:05:11.201Z,6.33
2023-02-08T22:07:45.439Z,6.07
2023-02-08T22:10:22.104Z,6.20
2023-02-08T22:12:58.547Z,6.40
2023-02-08T22:15:28.750Z,5.67
2023-02-08T22:18:06.632Z,6.60
2023-02-08T22:20:39.872Z,6.30
2023-02-08T22:23:08.277Z,7.10
2023-02-08T22:25:40.266Z,6.50
2023-02-08T22:28:18.103Z,7.30
2023-02-08T22:30:48.707Z,6.37
2023-02-08T22:33:21.013Z,6.53
2023-02-08T22:35:55.174Z,6.50
2023-02-08T22:38:23.673Z,6.43
2023-02-08T22:40:52.051Z,7.10
2023-02-08T22:43:22.803Z,6.47
2023-02-08T22:46:04.379Z,7.20
2023-02-08T22:48:32.685Z,6.87
2023-02-08T22:51:01.393Z,7.00
2023-02-08T22:53:29.625Z,7.00
2023-02-08T22:55:57.823Z,7.13
2023-02-08T22:58:27.366Z,6.40
2023-02-08T23:00:55.513Z,7.17
2023-02-08T23:03:24.389Z,7.07
2023-02-08T23:05:53.065Z,7.23
2023-02-08T23:08:22.893Z,7.37
2023-02-08T23:10:50.932Z,6.93
2023-02-08T23:13:18.964Z,6.90
2023-02-08T23:15:48.590Z,6.77
2023-02-08T23:18:16.965Z,8.00
2023-02-08T23:20:45.316Z,6.97
2023-02-08T23:23:13.761Z,7.53
2023-02-08T23:25:42.725Z,6.77
2023-02-08T23:28:12.094Z,7.53
2023-02-08T23:30:40.917Z,7.07
2023-02-08T23:33:10.636Z,7.30
2023-02-08T23:35:41.622Z,7.57
2023-02-08T23:38:10.285Z,7.53
2023-02-08T23:40:40.881Z,8.33
2023-02-08T23:43:08.997Z,6.70
2023-02-08T23:45:37.919Z,7.70
2023-02-08T23:48:06.258Z,7.97
2023-02-08T23:50:35.752Z,8.57
2023-02-08T23:53:03.842Z,8.03
2023-02-08T23:55:31.949Z,7.63
2023-02-08T23:58:00.753Z,8.10
